sensor_id;sensor_type;location;lat;lon;timestamp;temperature;humidity
22235;DHT22;11286;45.596;5.284;2022-11-15T00:01:16;12.30;99.90
22235;DHT22;11286;45.596;5.284;2022-11-15T00:03:43;12.60;99.90
22235;DHT22;11286;45.596;5.284;2022-11-15T00:06:08;12.30;99.90
22235;DHT22;11286;45.596;5.284;2022-11-15T00:08:34;12.50;99.90
22235;DHT22;11286;45.596;5.284;2022-11-15T00:11:02;12.50;99.90
22235;DHT22;11286;45.596;5.284;2022-11-15T00:13:28;12.30;99.90
22235;DHT22;11286;45.596;5.284;2022-11-15T00:15:57;12.40;99.90
22235;DHT22;11286;45.596;5.284;2022-11-15T00:18:23;12.30;99.90
22235;DHT22;11286;45.596;5.284;2022-11-15T00:20:49;12.30;99.90
22235;DHT22;11286;45.596;5.284;2022-11-15T00:23:14;12.30;99.90
22235;DHT22;11286;45.596;5.284;2022-11-15T00:25:40;12.60;99.90
22235;DHT22;11286;45.596;5.284;2022-11-15T00:28:06;12.40;99.90
22235;DHT22;11286;45.596;5.284;2022-11-15T00:30:32;12.30;99.90
22235;DHT22;11286;45.596;5.284;2022-11-15T00:33:04;12.60;99.90
22235;DHT22;11286;45.596;5.284;2022-11-15T00:35:34;12.20;99.90
22235;DHT22;11286;45.596;5.284;2022-11-15T00:38:01;12.20;99.90
22235;DHT22;11286;45.596;5.284;2022-11-15T00:40:26;12.10;99.90
22235;DHT22;11286;45.596;5.284;2022-11-15T00:42:52;12.30;99.90
22235;DHT22;11286;45.596;5.284;2022-11-15T00:45:17;12.30;99.90
22235;DHT22;11286;45.596;5.284;2022-11-15T00:47:46;12.60;99.90
22235;DHT22;11286;45.596;5.284;2022-11-15T00:50:13;12.50;99.90
22235;DHT22;11286;45.596;5.284;2022-11-15T00:52:39;11.90;99.90
22235;DHT22;11286;45.596;5.284;2022-11-15T00:55:05;11.90;99.90
22235;DHT22;11286;45.596;5.284;2022-11-15T00:57:30;12.00;99.90
22235;DHT22;11286;45.596;5.284;2022-11-15T00:59:56;12.10;99.90
22235;DHT22;11286;45.596;5.284;2022-11-15T01:02:21;12.10;99.90
22235;DHT22;11286;45.596;5.284;2022-11-15T01:04:47;11.90;99.90
22235;DHT22;11286;45.596;5.284;2022-11-15T01:07:13;11.90;99.90
22235;DHT22;11286;45.596;5.284;2022-11-15T01:09:38;11.90;99.90
22235;DHT22;11286;45.596;5.284;2022-11-15T01:12:04;12.10;99.90
22235;DHT22;11286;45.596;5.284;2022-11-15T01:14:30;12.10;99.90
22235;DHT22;11286;45.596;5.284;2022-11-15T01:16:56;12.10;99.90
22235;DHT22;11286;45.596;5.284;2022-11-15T01:19:22;12.20;99.90
22235;DHT22;11286;45.596;5.284;2022-11-15T01:21:50;12.20;99.90
22235;DHT22;11286;45.596;5.284;2022-11-15T01:24:16;12.20;99.90
22235;DHT22;11286;45.596;5.284;2022-11-15T01:26:42;12.30;99.90
22235;DHT22;11286;45.596;5.284;2022-11-15T01:29:08;12.10;99.90
22235;DHT22;11286;45.596;5.284;2022-11-15T01:31:33;12.10;99.90
22235;DHT22;11286;45.596;5.284;2022-11-15T01:33:59;12.30;99.90
22235;DHT22;11286;45.596;5.284;2022-11-15T01:36:24;12.10;99.90
22235;DHT22;11286;45.596;5.284;2022-11-15T01:38:54;12.30;99.90
22235;DHT22;11286;45.596;5.284;2022-11-15T01:41:24;12.10;99.90
22235;DHT22;11286;45.596;5.284;2022-11-15T01:43:53;12.30;99.90
22235;DHT22;11286;45.596;5.284;2022-11-15T01:48:48;12.10;99.90
22235;DHT22;11286;45.596;5.284;2022-11-15T01:51:16;12.50;99.90
22235;DHT22;11286;45.596;5.284;2022-11-15T01:53:44;12.10;99.90
22235;DHT22;11286;45.596;5.284;2022-11-15T01:56:20;12.10;99.90
22235;DHT22;11286;45.596;5.284;2022-11-15T01:58:46;12.10;99.90
22235;DHT22;11286;45.596;5.284;2022-11-15T02:01:13;12.00;99.90
22235;DHT22;11286;45.596;5.284;2022-11-15T02:04:20;12.30;99.90
22235;DHT22;11286;45.596;5.284;2022-11-15T02:06:39;12.10;99.90
22235;DHT22;11286;45.596;5.284;2022-11-15T02:09:05;11.90;99.90
22235;DHT22;11286;45.596;5.284;2022-11-15T02:11:31;11.90;99.90
22235;DHT22;11286;45.596;5.284;2022-11-15T02:13:58;12.00;99.90
22235;DHT22;11286;45.596;5.284;2022-11-15T02:22:10;11.70;99.90
22235;DHT22;11286;45.596;5.284;2022-11-15T02:36:06;11.80;99.90
22235;DHT22;11286;45.596;5.284;2022-11-15T02:39:34;11.80;99.90
22235;DHT22;11286;45.596;5.284;2022-11-15T02:41:58;11.90;99.90
22235;DHT22;11286;45.596;5.284;2022-11-15T02:44:38;12.10;99.90
22235;DHT22;11286;45.596;5.284;2022-11-15T02:47:08;11.90;99.90
22235;DHT22;11286;45.596;5.284;2022-11-15T02:49:41;11.90;99.90
22235;DHT22;11286;45.596;5.284;2022-11-15T02:52:07;11.90;99.90
22235;DHT22;11286;45.596;5.284;2022-11-15T02:54:33;11.90;99.90
22235;DHT22;11286;45.596;5.284;2022-11-15T02:57:05;11.80;99.90
22235;DHT22;11286;45.596;5.284;2022-11-15T03:02:20;11.80;99.90
22235;DHT22;11286;45.596;5.284;2022-11-15T03:07:52;11.90;99.90
22235;DHT22;11286;45.596;5.284;2022-11-15T03:10:57;12.00;99.90
22235;DHT22;11286;45.596;5.284;2022-11-15T03:13:36;12.00;99.90
22235;DHT22;11286;45.596;5.284;2022-11-15T03:16:15;12.30;99.90
22235;DHT22;11286;45.596;5.284;2022-11-15T03:18:47;12.10;99.90
22235;DHT22;11286;45.596;5.284;2022-11-15T03:21:16;12.20;99.90
22235;DHT22;11286;45.596;5.284;2022-11-15T03:23:44;12.10;99.90
22235;DHT22;11286;45.596;5.284;2022-11-15T03:26:14;12.40;99.90
22235;DHT22;11286;45.596;5.284;2022-11-15T03:28:46;12.10;99.90
22235;DHT22;11286;45.596;5.284;2022-11-15T03:31:14;12.10;99.90
22235;DHT22;11286;45.596;5.284;2022-11-15T03:34:02;12.20;99.90
22235;DHT22;11286;45.596;5.284;2022-11-15T03:36:31;12.20;99.90
22235;DHT22;11286;45.596;5.284;2022-11-15T03:39:02;12.20;99.90
22235;DHT22;11286;45.596;5.284;2022-11-15T03:41:42;12.50;99.90
22235;DHT22;11286;45.596;5.284;2022-11-15T03:44:21;12.20;99.90
22235;DHT22;11286;45.596;5.284;2022-11-15T03:47:11;12.10;99.90
22235;DHT22;11286;45.596;5.284;2022-11-15T03:49:44;12.10;99.90
22235;DHT22;11286;45.596;5.284;2022-11-15T03:52:11;12.40;99.90
22235;DHT22;11286;45.596;5.284;2022-11-15T03:54:37;12.10;99.90
22235;DHT22;11286;45.596;5.284;2022-11-15T03:57:02;12.10;99.90
22235;DHT22;11286;45.596;5.284;2022-11-15T03:59:28;12.20;99.90
22235;DHT22;11286;45.596;5.284;2022-11-15T04:01:53;12.00;99.90
22235;DHT22;11286;45.596;5.284;2022-11-15T04:04:19;12.00;99.90
22235;DHT22;11286;45.596;5.284;2022-11-15T04:06:45;12.00;99.90
22235;DHT22;11286;45.596;5.284;2022-11-15T04:09:10;12.00;99.90
22235;DHT22;11286;45.596;5.284;2022-11-15T04:11:36;12.00;99.90
22235;DHT22;11286;45.596;5.284;2022-11-15T04:14:01;12.00;99.90
22235;DHT22;11286;45.596;5.284;2022-11-15T04:16:27;12.00;99.90
22235;DHT22;11286;45.596;5.284;2022-11-15T04:18:53;12.30;99.90
22235;DHT22;11286;45.596;5.284;2022-11-15T04:21:37;12.00;99.90
22235;DHT22;11286;45.596;5.284;2022-11-15T04:24:22;12.00;99.90
22235;DHT22;11286;45.596;5.284;2022-11-15T04:26:47;12.40;99.90
22235;DHT22;11286;45.596;5.284;2022-11-15T04:29:13;12.10;99.90
22235;DHT22;11286;45.596;5.284;2022-11-15T04:31:57;12.30;99.90
22235;DHT22;11286;45.596;5.284;2022-11-15T04:34:23;12.10;99.90
22235;DHT22;11286;45.596;5.284;2022-11-15T04:36:48;12.00;99.90
22235;DHT22;11286;45.596;5.284;2022-11-15T04:39:32;12.00;99.90
22235;DHT22;11286;45.596;5.284;2022-11-15T04:41:58;12.10;99.90
22235;DHT22;11286;45.596;5.284;2022-11-15T04:44:24;12.00;99.90
22235;DHT22;11286;45.596;5.284;2022-11-15T04:46:49;12.00;99.90
22235;DHT22;11286;45.596;5.284;2022-11-15T04:49:15;12.00;99.90
22235;DHT22;11286;45.596;5.284;2022-11-15T04:51:41;12.00;99.90
22235;DHT22;11286;45.596;5.284;2022-11-15T04:54:06;12.00;99.90
22235;DHT22;11286;45.596;5.284;2022-11-15T04:56:32;11.90;99.90
22235;DHT22;11286;45.596;5.284;2022-11-15T04:58:57;11.90;99.90
22235;DHT22;11286;45.596;5.284;2022-11-15T05:01:23;11.90;99.90
22235;DHT22;11286;45.596;5.284;2022-11-15T05:03:48;11.90;99.90
22235;DHT22;11286;45.596;5.284;2022-11-15T05:06:32;11.80;99.90
22235;DHT22;11286;45.596;5.284;2022-11-15T05:08:58;12.10;99.90
22235;DHT22;11286;45.596;5.284;2022-11-15T05:11:24;11.90;99.90
22235;DHT22;11286;45.596;5.284;2022-11-15T05:13:49;11.80;99.90
22235;DHT22;11286;45.596;5.284;2022-11-15T05:16:15;11.80;99.90
22235;DHT22;11286;45.596;5.284;2022-11-15T05:18:41;11.70;99.90
22235;DHT22;11286;45.596;5.284;2022-11-15T05:21:12;11.80;99.90
22235;DHT22;11286;45.596;5.284;2022-11-15T05:23:39;11.80;99.90
22235;DHT22;11286;45.596;5.284;2022-11-15T05:26:06;11.80;99.90
22235;DHT22;11286;45.596;5.284;2022-11-15T05:28:32;11.80;99.90
22235;DHT22;11286;45.596;5.284;2022-11-15T05:31:06;11.80;99.90
22235;DHT22;11286;45.596;5.284;2022-11-15T05:33:32;11.80;99.90
22235;DHT22;11286;45.596;5.284;2022-11-15T05:36:06;11.90;99.90
22235;DHT22;11286;45.596;5.284;2022-11-15T05:38:33;11.90;99.90
22235;DHT22;11286;45.596;5.284;2022-11-15T05:41:00;11.80;99.90
22235;DHT22;11286;45.596;5.284;2022-11-15T05:43:27;11.80;99.90
22235;DHT22;11286;45.596;5.284;2022-11-15T05:45:54;11.80;99.90
22235;DHT22;11286;45.596;5.284;2022-11-15T05:48:20;11.80;99.90
22235;DHT22;11286;45.596;5.284;2022-11-15T05:50:47;11.80;99.90
22235;DHT22;11286;45.596;5.284;2022-11-15T05:53:15;11.80;99.90
22235;DHT22;11286;45.596;5.284;2022-11-15T05:55:41;11.80;99.90
22235;DHT22;11286;45.596;5.284;2022-11-15T05:58:07;11.80;99.90
22235;DHT22;11286;45.596;5.284;2022-11-15T06:00:33;11.80;99.90
22235;DHT22;11286;45.596;5.284;2022-11-15T06:02:58;11.90;99.90
22235;DHT22;11286;45.596;5.284;2022-11-15T06:05:24;12.30;99.90
22235;DHT22;11286;45.596;5.284;2022-11-15T06:07:50;11.80;99.90
22235;DHT22;11286;45.596;5.284;2022-11-15T06:10:15;12.20;99.90
22235;DHT22;11286;45.596;5.284;2022-11-15T06:12:41;11.70;99.90
22235;DHT22;11286;45.596;5.284;2022-11-15T06:15:07;11.70;99.90
22235;DHT22;11286;45.596;5.284;2022-11-15T06:17:33;11.60;99.90
22235;DHT22;11286;45.596;5.284;2022-11-15T06:19:58;11.70;99.90
22235;DHT22;11286;45.596;5.284;2022-11-15T06:22:24;11.60;99.90
22235;DHT22;11286;45.596;5.284;2022-11-15T06:24:49;11.70;99.90
22235;DHT22;11286;45.596;5.284;2022-11-15T06:27:15;11.70;99.90
22235;DHT22;11286;45.596;5.284;2022-11-15T06:29:41;11.70;99.90
22235;DHT22;11286;45.596;5.284;2022-11-15T06:32:06;11.70;99.90
22235;DHT22;11286;45.596;5.284;2022-11-15T06:34:32;11.70;99.90
22235;DHT22;11286;45.596;5.284;2022-11-15T06:36:57;11.60;99.90
22235;DHT22;11286;45.596;5.284;2022-11-15T06:39:23;11.80;99.90
22235;DHT22;11286;45.596;5.284;2022-11-15T06:41:49;11.70;99.90
22235;DHT22;11286;45.596;5.284;2022-11-15T06:44:14;11.70;99.90
22235;DHT22;11286;45.596;5.284;2022-11-15T06:46:40;11.60;99.90
22235;DHT22;11286;45.596;5.284;2022-11-15T06:49:05;11.50;99.90
22235;DHT22;11286;45.596;5.284;2022-11-15T06:51:31;11.60;99.90
22235;DHT22;11286;45.596;5.284;2022-11-15T06:53:56;11.60;99.90
22235;DHT22;11286;45.596;5.284;2022-11-15T06:56:22;11.70;99.90
22235;DHT22;11286;45.596;5.284;2022-11-15T06:58:48;11.80;99.90
22235;DHT22;11286;45.596;5.284;2022-11-15T07:01:13;12.10;99.90
22235;DHT22;11286;45.596;5.284;2022-11-15T07:03:41;11.90;99.90
22235;DHT22;11286;45.596;5.284;2022-11-15T07:06:07;12.00;99.90
22235;DHT22;11286;45.596;5.284;2022-11-15T07:08:34;12.10;99.90
22235;DHT22;11286;45.596;5.284;2022-11-15T07:11:02;12.20;99.90
22235;DHT22;11286;45.596;5.284;2022-11-15T07:13:29;12.20;99.90
22235;DHT22;11286;45.596;5.284;2022-11-15T07:15:58;12.10;99.90
22235;DHT22;11286;45.596;5.284;2022-11-15T07:18:26;12.10;99.90
22235;DHT22;11286;45.596;5.284;2022-11-15T07:20:52;12.10;99.90
22235;DHT22;11286;45.596;5.284;2022-11-15T07:23:18;12.30;99.90
22235;DHT22;11286;45.596;5.284;2022-11-15T07:25:44;12.30;99.90
22235;DHT22;11286;45.596;5.284;2022-11-15T07:28:09;12.30;99.90
22235;DHT22;11286;45.596;5.284;2022-11-15T07:30:35;12.40;99.90
22235;DHT22;11286;45.596;5.284;2022-11-15T07:33:01;12.50;99.90
22235;DHT22;11286;45.596;5.284;2022-11-15T07:35:28;12.40;99.90
22235;DHT22;11286;45.596;5.284;2022-11-15T07:37:55;12.20;99.90
22235;DHT22;11286;45.596;5.284;2022-11-15T07:40:21;12.50;99.90
22235;DHT22;11286;45.596;5.284;2022-11-15T07:42:47;12.40;99.90
22235;DHT22;11286;45.596;5.284;2022-11-15T07:45:20;12.50;99.90
22235;DHT22;11286;45.596;5.284;2022-11-15T07:47:47;12.50;99.90
22235;DHT22;11286;45.596;5.284;2022-11-15T07:50:13;12.60;99.90
22235;DHT22;11286;45.596;5.284;2022-11-15T07:52:38;12.60;99.90
22235;DHT22;11286;45.596;5.284;2022-11-15T07:55:04;12.60;99.90
22235;DHT22;11286;45.596;5.284;2022-11-15T07:57:30;12.60;99.90
22235;DHT22;11286;45.596;5.284;2022-11-15T07:59:56;12.70;99.90
22235;DHT22;11286;45.596;5.284;2022-11-15T08:02:21;12.90;99.90
22235;DHT22;11286;45.596;5.284;2022-11-15T08:04:47;12.60;99.90
22235;DHT22;11286;45.596;5.284;2022-11-15T08:07:12;12.80;99.90
22235;DHT22;11286;45.596;5.284;2022-11-15T08:09:38;12.50;99.90
22235;DHT22;11286;45.596;5.284;2022-11-15T08:12:04;12.60;99.90
22235;DHT22;11286;45.596;5.284;2022-11-15T08:14:30;12.80;99.90
22235;DHT22;11286;45.596;5.284;2022-11-15T08:16:56;12.70;99.90
22235;DHT22;11286;45.596;5.284;2022-11-15T08:19:22;12.70;99.90
22235;DHT22;11286;45.596;5.284;2022-11-15T08:21:47;12.70;99.90
22235;DHT22;11286;45.596;5.284;2022-11-15T08:24:13;12.80;99.90
22235;DHT22;11286;45.596;5.284;2022-11-15T08:26:39;12.70;99.90
22235;DHT22;11286;45.596;5.284;2022-11-15T08:29:05;12.70;99.90
22235;DHT22;11286;45.596;5.284;2022-11-15T08:31:32;12.70;99.90
22235;DHT22;11286;45.596;5.284;2022-11-15T08:33:58;12.60;99.90
22235;DHT22;11286;45.596;5.284;2022-11-15T08:36:24;12.80;99.90
22235;DHT22;11286;45.596;5.284;2022-11-15T08:38:49;12.80;99.90
22235;DHT22;11286;45.596;5.284;2022-11-15T08:41:36;12.90;99.90
22235;DHT22;11286;45.596;5.284;2022-11-15T08:44:02;13.40;99.90
22235;DHT22;11286;45.596;5.284;2022-11-15T08:46:27;13.20;99.90
22235;DHT22;11286;45.596;5.284;2022-11-15T08:48:53;13.20;99.90
22235;DHT22;11286;45.596;5.284;2022-11-15T08:51:19;13.10;99.90
22235;DHT22;11286;45.596;5.284;2022-11-15T08:53:44;13.10;99.90
22235;DHT22;11286;45.596;5.284;2022-11-15T08:56:12;13.20;99.90
22235;DHT22;11286;45.596;5.284;2022-11-15T08:58:38;13.10;99.90
22235;DHT22;11286;45.596;5.284;2022-11-15T09:01:04;13.20;99.90
22235;DHT22;11286;45.596;5.284;2022-11-15T09:03:30;13.10;99.90
22235;DHT22;11286;45.596;5.284;2022-11-15T09:05:59;13.20;99.90
22235;DHT22;11286;45.596;5.284;2022-11-15T09:08:29;13.30;99.90
22235;DHT22;11286;45.596;5.284;2022-11-15T09:10:55;13.40;99.90
22235;DHT22;11286;45.596;5.284;2022-11-15T09:13:21;13.50;99.90
22235;DHT22;11286;45.596;5.284;2022-11-15T09:15:47;13.50;99.90
22235;DHT22;11286;45.596;5.284;2022-11-15T09:18:13;13.50;99.90
22235;DHT22;11286;45.596;5.284;2022-11-15T09:20:38;13.50;99.90
22235;DHT22;11286;45.596;5.284;2022-11-15T09:23:05;13.50;99.90
22235;DHT22;11286;45.596;5.284;2022-11-15T09:25:31;13.50;99.90
22235;DHT22;11286;45.596;5.284;2022-11-15T09:27:57;13.60;99.90
22235;DHT22;11286;45.596;5.284;2022-11-15T09:30:23;13.60;99.90
22235;DHT22;11286;45.596;5.284;2022-11-15T09:32:49;13.70;99.90
22235;DHT22;11286;45.596;5.284;2022-11-15T09:35:15;13.80;99.90
22235;DHT22;11286;45.596;5.284;2022-11-15T09:37:40;13.90;99.90
22235;DHT22;11286;45.596;5.284;2022-11-15T09:40:12;14.00;99.90
22235;DHT22;11286;45.596;5.284;2022-11-15T09:45:34;13.90;99.90
22235;DHT22;11286;45.596;5.284;2022-11-15T09:48:33;14.10;99.90
22235;DHT22;11286;45.596;5.284;2022-11-15T09:51:03;14.10;99.90
22235;DHT22;11286;45.596;5.284;2022-11-15T09:53:31;14.20;99.90
22235;DHT22;11286;45.596;5.284;2022-11-15T09:56:03;14.20;99.90
22235;DHT22;11286;45.596;5.284;2022-11-15T09:58:33;14.30;99.90
22235;DHT22;11286;45.596;5.284;2022-11-15T10:01:04;14.20;99.90
22235;DHT22;11286;45.596;5.284;2022-11-15T10:03:35;14.20;99.90
22235;DHT22;11286;45.596;5.284;2022-11-15T10:06:04;14.30;99.90
22235;DHT22;11286;45.596;5.284;2022-11-15T10:11:11;14.40;99.90
22235;DHT22;11286;45.596;5.284;2022-11-15T10:13:41;14.30;99.90
22235;DHT22;11286;45.596;5.284;2022-11-15T10:21:46;14.60;99.90
22235;DHT22;11286;45.596;5.284;2022-11-15T10:24:19;14.80;99.90
22235;DHT22;11286;45.596;5.284;2022-11-15T10:26:49;14.80;99.90
22235;DHT22;11286;45.596;5.284;2022-11-15T10:29:19;14.80;99.90
22235;DHT22;11286;45.596;5.284;2022-11-15T10:31:45;14.80;99.90
22235;DHT22;11286;45.596;5.284;2022-11-15T10:34:20;14.80;99.90
22235;DHT22;11286;45.596;5.284;2022-11-15T10:36:47;14.90;99.90
22235;DHT22;11286;45.596;5.284;2022-11-15T10:39:18;15.10;99.90
22235;DHT22;11286;45.596;5.284;2022-11-15T10:41:44;14.90;99.90
22235;DHT22;11286;45.596;5.284;2022-11-15T10:46:39;14.90;99.90
22235;DHT22;11286;45.596;5.284;2022-11-15T10:49:12;15.10;99.90
22235;DHT22;11286;45.596;5.284;2022-11-15T10:51:48;15.10;99.90
22235;DHT22;11286;45.596;5.284;2022-11-15T10:57:04;14.90;99.90
22235;DHT22;11286;45.596;5.284;2022-11-15T10:59:33;15.00;99.90
22235;DHT22;11286;45.596;5.284;2022-11-15T11:02:01;15.00;99.90
22235;DHT22;11286;45.596;5.284;2022-11-15T11:04:27;14.90;99.90
22235;DHT22;11286;45.596;5.284;2022-11-15T11:06:57;14.90;99.90
22235;DHT22;11286;45.596;5.284;2022-11-15T11:11:59;15.00;99.90
22235;DHT22;11286;45.596;5.284;2022-11-15T11:14:36;14.90;99.90
22235;DHT22;11286;45.596;5.284;2022-11-15T11:20:17;14.90;99.90
22235;DHT22;11286;45.596;5.284;2022-11-15T11:31:29;14.80;99.90
22235;DHT22;11286;45.596;5.284;2022-11-15T11:47:32;15.50;99.90
22235;DHT22;11286;45.596;5.284;2022-11-15T11:50:14;15.50;99.90
22235;DHT22;11286;45.596;5.284;2022-11-15T11:53:12;15.60;99.90
22235;DHT22;11286;45.596;5.284;2022-11-15T11:55:53;15.80;99.90
22235;DHT22;11286;45.596;5.284;2022-11-15T12:00:55;15.80;99.90
22235;DHT22;11286;45.596;5.284;2022-11-15T12:06:32;15.90;99.90
22235;DHT22;11286;45.596;5.284;2022-11-15T12:09:04;16.10;99.90
22235;DHT22;11286;45.596;5.284;2022-11-15T12:15:02;16.10;99.90
22235;DHT22;11286;45.596;5.284;2022-11-15T12:17:02;16.00;99.90
22235;DHT22;11286;45.596;5.284;2022-11-15T12:19:29;15.80;99.90
22235;DHT22;11286;45.596;5.284;2022-11-15T12:22:13;15.90;99.90
22235;DHT22;11286;45.596;5.284;2022-11-15T12:24:45;15.50;99.90
22235;DHT22;11286;45.596;5.284;2022-11-15T12:27:21;15.50;99.90
22235;DHT22;11286;45.596;5.284;2022-11-15T12:30:02;15.40;99.90
22235;DHT22;11286;45.596;5.284;2022-11-15T12:32:34;15.30;99.90
22235;DHT22;11286;45.596;5.284;2022-11-15T12:35:03;15.60;99.90
22235;DHT22;11286;45.596;5.284;2022-11-15T12:37:50;15.20;99.90
22235;DHT22;11286;45.596;5.284;2022-11-15T12:40:20;15.00;99.90
22235;DHT22;11286;45.596;5.284;2022-11-15T12:45:44;15.00;99.90
22235;DHT22;11286;45.596;5.284;2022-11-15T13:01:09;14.90;99.90
22235;DHT22;11286;45.596;5.284;2022-11-15T13:03:36;14.90;99.90
22235;DHT22;11286;45.596;5.284;2022-11-15T13:06:39;14.80;99.90
22235;DHT22;11286;45.596;5.284;2022-11-15T13:12:07;15.10;99.90
22235;DHT22;11286;45.596;5.284;2022-11-15T13:17:24;15.30;99.90
22235;DHT22;11286;45.596;5.284;2022-11-15T13:20:00;15.30;99.90
22235;DHT22;11286;45.596;5.284;2022-11-15T13:22:27;15.20;99.90
22235;DHT22;11286;45.596;5.284;2022-11-15T13:25:45;15.40;99.90
22235;DHT22;11286;45.596;5.284;2022-11-15T13:30:53;15.40;99.90
22235;DHT22;11286;45.596;5.284;2022-11-15T13:35:54;15.40;99.90
22235;DHT22;11286;45.596;5.284;2022-11-15T13:38:29;15.40;99.90
22235;DHT22;11286;45.596;5.284;2022-11-15T13:40:56;15.50;99.90
22235;DHT22;11286;45.596;5.284;2022-11-15T13:46:11;15.40;99.90
22235;DHT22;11286;45.596;5.284;2022-11-15T13:48:38;15.40;99.90
22235;DHT22;11286;45.596;5.284;2022-11-15T13:51:18;15.40;99.90
22235;DHT22;11286;45.596;5.284;2022-11-15T13:53:50;15.50;99.90
22235;DHT22;11286;45.596;5.284;2022-11-15T13:56:18;15.60;99.90
22235;DHT22;11286;45.596;5.284;2022-11-15T13:58:45;15.60;99.90
22235;DHT22;11286;45.596;5.284;2022-11-15T14:01:17;15.90;99.90
22235;DHT22;11286;45.596;5.284;2022-11-15T14:03:52;15.90;99.90
22235;DHT22;11286;45.596;5.284;2022-11-15T14:06:20;15.70;99.90
22235;DHT22;11286;45.596;5.284;2022-11-15T14:09:03;15.70;99.90
22235;DHT22;11286;45.596;5.284;2022-11-15T14:11:28;15.60;99.90
22235;DHT22;11286;45.596;5.284;2022-11-15T14:16:51;15.60;99.90
22235;DHT22;11286;45.596;5.284;2022-11-15T14:22:21;15.60;99.90
22235;DHT22;11286;45.596;5.284;2022-11-15T14:25:05;15.60;99.90
22235;DHT22;11286;45.596;5.284;2022-11-15T14:27:32;15.60;99.90
22235;DHT22;11286;45.596;5.284;2022-11-15T14:29:57;15.50;99.90
22235;DHT22;11286;45.596;5.284;2022-11-15T14:32:27;15.50;99.90
22235;DHT22;11286;45.596;5.284;2022-11-15T14:35:00;15.60;99.90
22235;DHT22;11286;45.596;5.284;2022-11-15T14:37:31;15.70;99.90
22235;DHT22;11286;45.596;5.284;2022-11-15T14:40:02;15.70;99.90
22235;DHT22;11286;45.596;5.284;2022-11-15T14:42:28;15.70;99.90
22235;DHT22;11286;45.596;5.284;2022-11-15T14:44:54;15.60;99.90
22235;DHT22;11286;45.596;5.284;2022-11-15T14:47:19;15.50;99.90
22235;DHT22;11286;45.596;5.284;2022-11-15T14:49:45;15.60;99.90
22235;DHT22;11286;45.596;5.284;2022-11-15T14:52:31;15.40;99.90
22235;DHT22;11286;45.596;5.284;2022-11-15T14:55:02;15.40;99.90
22235;DHT22;11286;45.596;5.284;2022-11-15T14:57:29;15.30;99.90
22235;DHT22;11286;45.596;5.284;2022-11-15T14:59:55;15.20;99.90
22235;DHT22;11286;45.596;5.284;2022-11-15T15:02:24;15.20;99.90
22235;DHT22;11286;45.596;5.284;2022-11-15T15:04:50;15.40;99.90
22235;DHT22;11286;45.596;5.284;2022-11-15T15:07:17;15.10;99.90
22235;DHT22;11286;45.596;5.284;2022-11-15T15:09:43;15.10;99.90
22235;DHT22;11286;45.596;5.284;2022-11-15T15:12:29;15.00;99.90
22235;DHT22;11286;45.596;5.284;2022-11-15T15:14:55;15.30;99.90
22235;DHT22;11286;45.596;5.284;2022-11-15T15:17:21;15.00;99.90
22235;DHT22;11286;45.596;5.284;2022-11-15T15:19:46;15.00;99.90
22235;DHT22;11286;45.596;5.284;2022-11-15T15:22:15;14.90;99.90
22235;DHT22;11286;45.596;5.284;2022-11-15T15:24:43;14.90;99.90
22235;DHT22;11286;45.596;5.284;2022-11-15T15:27:09;15.10;99.90
22235;DHT22;11286;45.596;5.284;2022-11-15T15:29:35;15.00;99.90
22235;DHT22;11286;45.596;5.284;2022-11-15T15:32:00;14.90;99.90
22235;DHT22;11286;45.596;5.284;2022-11-15T15:34:26;14.80;99.90
22235;DHT22;11286;45.596;5.284;2022-11-15T15:39:46;14.80;99.90
22235;DHT22;11286;45.596;5.284;2022-11-15T15:42:12;14.70;99.90
22235;DHT22;11286;45.596;5.284;2022-11-15T15:44:37;14.70;99.90
22235;DHT22;11286;45.596;5.284;2022-11-15T15:47:12;14.60;99.90
22235;DHT22;11286;45.596;5.284;2022-11-15T15:49:39;14.60;99.90
22235;DHT22;11286;45.596;5.284;2022-11-15T15:52:06;14.50;99.90
22235;DHT22;11286;45.596;5.284;2022-11-15T15:54:31;14.50;99.90
22235;DHT22;11286;45.596;5.284;2022-11-15T15:56:57;14.50;99.90
22235;DHT22;11286;45.596;5.284;2022-11-15T15:59:22;14.60;99.90
22235;DHT22;11286;45.596;5.284;2022-11-15T16:01:48;14.60;99.90
22235;DHT22;11286;45.596;5.284;2022-11-15T16:04:13;14.80;99.90
22235;DHT22;11286;45.596;5.284;2022-11-15T16:06:40;14.60;99.90
22235;DHT22;11286;45.596;5.284;2022-11-15T16:09:13;14.50;99.90
22235;DHT22;11286;45.596;5.284;2022-11-15T16:11:39;14.40;99.90
22235;DHT22;11286;45.596;5.284;2022-11-15T16:14:05;14.40;99.90
22235;DHT22;11286;45.596;5.284;2022-11-15T16:16:30;14.50;99.90
22235;DHT22;11286;45.596;5.284;2022-11-15T16:18:56;14.50;99.90
22235;DHT22;11286;45.596;5.284;2022-11-15T16:21:22;14.40;99.90
22235;DHT22;11286;45.596;5.284;2022-11-15T16:23:47;14.40;99.90
22235;DHT22;11286;45.596;5.284;2022-11-15T16:26:25;14.30;99.90
22235;DHT22;11286;45.596;5.284;2022-11-15T16:28:51;14.30;99.90
22235;DHT22;11286;45.596;5.284;2022-11-15T16:31:17;14.30;99.90
22235;DHT22;11286;45.596;5.284;2022-11-15T16:33:45;14.20;99.90
22235;DHT22;11286;45.596;5.284;2022-11-15T16:36:22;14.30;99.90
22235;DHT22;11286;45.596;5.284;2022-11-15T16:38:48;14.20;99.90
22235;DHT22;11286;45.596;5.284;2022-11-15T16:41:14;14.10;99.90
22235;DHT22;11286;45.596;5.284;2022-11-15T16:43:46;14.10;99.90
22235;DHT22;11286;45.596;5.284;2022-11-15T16:46:20;14.10;99.90
22235;DHT22;11286;45.596;5.284;2022-11-15T16:48:46;14.10;99.90
22235;DHT22;11286;45.596;5.284;2022-11-15T16:51:11;14.10;99.90
22235;DHT22;11286;45.596;5.284;2022-11-15T16:53:37;14.10;99.90
22235;DHT22;11286;45.596;5.284;2022-11-15T16:56:03;14.10;99.90
22235;DHT22;11286;45.596;5.284;2022-11-15T16:58:36;14.10;99.90
22235;DHT22;11286;45.596;5.284;2022-11-15T17:01:02;14.00;99.90
22235;DHT22;11286;45.596;5.284;2022-11-15T17:03:27;14.10;99.90
22235;DHT22;11286;45.596;5.284;2022-11-15T17:05:57;14.00;99.90
22235;DHT22;11286;45.596;5.284;2022-11-15T17:08:23;14.00;99.90
22235;DHT22;11286;45.596;5.284;2022-11-15T17:10:49;14.10;99.90
22235;DHT22;11286;45.596;5.284;2022-11-15T17:13:15;14.10;99.90
22235;DHT22;11286;45.596;5.284;2022-11-15T17:15:41;14.00;99.90
22235;DHT22;11286;45.596;5.284;2022-11-15T17:18:10;14.10;99.90
22235;DHT22;11286;45.596;5.284;2022-11-15T17:20:37;14.20;99.90
22235;DHT22;11286;45.596;5.284;2022-11-15T17:23:02;14.10;99.90
22235;DHT22;11286;45.596;5.284;2022-11-15T17:25:28;14.00;99.90
22235;DHT22;11286;45.596;5.284;2022-11-15T17:27:55;13.90;99.90
22235;DHT22;11286;45.596;5.284;2022-11-15T17:30:21;13.90;99.90
22235;DHT22;11286;45.596;5.284;2022-11-15T17:32:46;14.00;99.90
22235;DHT22;11286;45.596;5.284;2022-11-15T17:35:12;14.00;99.90
22235;DHT22;11286;45.596;5.284;2022-11-15T17:37:38;14.00;99.90